sensor_id;sensor_type;location;lat;lon;timestamp;P1;durP1;ratioP1;P2;durP2;ratioP2
46334;SDS011;32051;48.882;9.210;2023-03-05T00:00:08;23.42;;;13.90;;
46334;SDS011;32051;48.882;9.210;2023-03-05T00:02:38;25.48;;;14.98;;
46334;SDS011;32051;48.882;9.210;2023-03-05T00:05:05;30.50;;;14.82;;
46334;SDS011;32051;48.882;9.210;2023-03-05T00:07:31;31.33;;;15.35;;
46334;SDS011;32051;48.882;9.210;2023-03-05T00:10:00;24.13;;;14.00;;
46334;SDS011;32051;48.882;9.210;2023-03-05T00:12:26;35.63;;;15.50;;
46334;SDS011;32051;48.882;9.210;2023-03-05T00:14:52;28.80;;;14.38;;
46334;SDS011;32051;48.882;9.210;2023-03-05T00:17:19;30.33;;;16.17;;
46334;SDS011;32051;48.882;9.210;2023-03-05T00:19:45;30.67;;;15.73;;
46334;SDS011;32051;48.882;9.210;2023-03-05T00:22:11;29.30;;;14.52;;
46334;SDS011;32051;48.882;9.210;2023-03-05T00:24:37;28.92;;;14.20;;
46334;SDS011;32051;48.882;9.210;2023-03-05T00:27:03;29.02;;;14.68;;
46334;SDS011;32051;48.882;9.210;2023-03-05T00:29:29;32.63;;;15.02;;
46334;SDS011;32051;48.882;9.210;2023-03-05T00:31:55;28.15;;;15.60;;
46334;SDS011;32051;48.882;9.210;2023-03-05T00:34:21;32.55;;;15.98;;
46334;SDS011;32051;48.882;9.210;2023-03-05T00:36:50;32.83;;;15.68;;
46334;SDS011;32051;48.882;9.210;2023-03-05T00:39:17;31.55;;;14.95;;
46334;SDS011;32051;48.882;9.210;2023-03-05T00:41:43;34.78;;;17.95;;
46334;SDS011;32051;48.882;9.210;2023-03-05T00:44:10;28.20;;;14.57;;
46334;SDS011;32051;48.882;9.210;2023-03-05T00:46:36;23.85;;;13.43;;
46334;SDS011;32051;48.882;9.210;2023-03-05T00:49:03;30.25;;;14.48;;
46334;SDS011;32051;48.882;9.210;2023-03-05T00:51:29;27.90;;;13.90;;
46334;SDS011;32051;48.882;9.210;2023-03-05T00:53:55;32.42;;;15.52;;
46334;SDS011;32051;48.882;9.210;2023-03-05T00:56:21;28.27;;;15.32;;
46334;SDS011;32051;48.882;9.210;2023-03-05T00:58:47;29.83;;;14.10;;
46334;SDS011;32051;48.882;9.210;2023-03-05T01:01:13;26.55;;;14.93;;
46334;SDS011;32051;48.882;9.210;2023-03-05T01:03:40;24.52;;;13.82;;
46334;SDS011;32051;48.882;9.210;2023-03-05T01:06:07;33.58;;;14.73;;
46334;SDS011;32051;48.882;9.210;2023-03-05T01:08:34;28.30;;;13.52;;
46334;SDS011;32051;48.882;9.210;2023-03-05T01:11:00;38.60;;;13.65;;
46334;SDS011;32051;48.882;9.210;2023-03-05T01:13:26;34.33;;;16.17;;
46334;SDS011;32051;48.882;9.210;2023-03-05T01:15:52;26.80;;;13.52;;
46334;SDS011;32051;48.882;9.210;2023-03-05T01:18:19;26.65;;;13.88;;
46334;SDS011;32051;48.882;9.210;2023-03-05T01:20:45;28.73;;;11.57;;
46334;SDS011;32051;48.882;9.210;2023-03-05T01:23:11;32.17;;;14.93;;
46334;SDS011;32051;48.882;9.210;2023-03-05T01:25:38;31.20;;;14.48;;
46334;SDS011;32051;48.882;9.210;2023-03-05T01:28:04;28.85;;;13.50;;
46334;SDS011;32051;48.882;9.210;2023-03-05T01:30:31;24.00;;;12.20;;
46334;SDS011;32051;48.882;9.210;2023-03-05T01:32:57;31.98;;;13.98;;
46334;SDS011;32051;48.882;9.210;2023-03-05T01:35:23;25.20;;;12.82;;
46334;SDS011;32051;48.882;9.210;2023-03-05T01:37:50;32.63;;;14.38;;
46334;SDS011;32051;48.882;9.210;2023-03-05T01:40:18;32.67;;;12.65;;
46334;SDS011;32051;48.882;9.210;2023-03-05T01:42:46;33.40;;;14.80;;
46334;SDS011;32051;48.882;9.210;2023-03-05T01:45:13;29.65;;;13.05;;
46334;SDS011;32051;48.882;9.210;2023-03-05T01:47:40;27.42;;;14.35;;
46334;SDS011;32051;48.882;9.210;2023-03-05T01:50:06;27.20;;;12.82;;
46334;SDS011;32051;48.882;9.210;2023-03-05T01:52:35;28.90;;;13.75;;
46334;SDS011;32051;48.882;9.210;2023-03-05T01:55:04;28.33;;;14.32;;
46334;SDS011;32051;48.882;9.210;2023-03-05T01:57:32;28.88;;;13.98;;
46334;SDS011;32051;48.882;9.210;2023-03-05T02:00:18;22.90;;;12.60;;
46334;SDS011;32051;48.882;9.210;2023-03-05T02:02:48;29.10;;;15.77;;
46334;SDS011;32051;48.882;9.210;2023-03-05T02:05:19;31.65;;;14.98;;
46334;SDS011;32051;48.882;9.210;2023-03-05T02:07:54;26.30;;;13.65;;
46334;SDS011;32051;48.882;9.210;2023-03-05T02:10:22;26.63;;;13.20;;
46334;SDS011;32051;48.882;9.210;2023-03-05T02:12:48;33.17;;;14.95;;
46334;SDS011;32051;48.882;9.210;2023-03-05T02:15:15;27.48;;;13.70;;
46334;SDS011;32051;48.882;9.210;2023-03-05T02:17:41;28.40;;;14.15;;
46334;SDS011;32051;48.882;9.210;2023-03-05T02:20:09;29.95;;;13.50;;
46334;SDS011;32051;48.882;9.210;2023-03-05T02:22:35;33.75;;;15.40;;
46334;SDS011;32051;48.882;9.210;2023-03-05T02:25:09;33.22;;;14.80;;
46334;SDS011;32051;48.882;9.210;2023-03-05T02:27:36;35.30;;;14.10;;
46334;SDS011;32051;48.882;9.210;2023-03-05T02:30:03;29.30;;;14.68;;
46334;SDS011;32051;48.882;9.210;2023-03-05T02:32:29;25.50;;;13.55;;
46334;SDS011;32051;48.882;9.210;2023-03-05T02:34:55;28.48;;;13.82;;
46334;SDS011;32051;48.882;9.210;2023-03-05T02:37:21;34.03;;;12.30;;
46334;SDS011;32051;48.882;9.210;2023-03-05T02:39:50;29.48;;;12.90;;
46334;SDS011;32051;48.882;9.210;2023-03-05T02:42:16;29.42;;;12.88;;
46334;SDS011;32051;48.882;9.210;2023-03-05T02:44:42;24.02;;;12.32;;
46334;SDS011;32051;48.882;9.210;2023-03-05T02:47:09;29.15;;;11.90;;
46334;SDS011;32051;48.882;9.210;2023-03-05T02:49:35;25.40;;;12.25;;
46334;SDS011;32051;48.882;9.210;2023-03-05T02:52:02;27.02;;;12.52;;
46334;SDS011;32051;48.882;9.210;2023-03-05T02:54:28;21.23;;;11.68;;
46334;SDS011;32051;48.882;9.210;2023-03-05T02:56:54;23.08;;;11.60;;
46334;SDS011;32051;48.882;9.210;2023-03-05T02:59:20;27.70;;;13.80;;
46334;SDS011;32051;48.882;9.210;2023-03-05T03:01:47;33.25;;;11.32;;
46334;SDS011;32051;48.882;9.210;2023-03-05T03:04:14;23.02;;;11.85;;
46334;SDS011;32051;48.882;9.210;2023-03-05T03:06:40;31.50;;;13.68;;
46334;SDS011;32051;48.882;9.210;2023-03-05T03:09:06;25.58;;;11.48;;
46334;SDS011;32051;48.882;9.210;2023-03-05T03:11:32;24.30;;;11.82;;
46334;SDS011;32051;48.882;9.210;2023-03-05T03:13:58;21.02;;;11.30;;
46334;SDS011;32051;48.882;9.210;2023-03-05T03:16:24;22.90;;;10.20;;
46334;SDS011;32051;48.882;9.210;2023-03-05T03:18:50;26.77;;;12.50;;
46334;SDS011;32051;48.882;9.210;2023-03-05T03:21:17;25.52;;;11.93;;
46334;SDS011;32051;48.882;9.210;2023-03-05T03:23:44;25.75;;;11.40;;
46334;SDS011;32051;48.882;9.210;2023-03-05T03:26:10;21.02;;;11.32;;
46334;SDS011;32051;48.882;9.210;2023-03-05T03:28:36;27.90;;;11.93;;
46334;SDS011;32051;48.882;9.210;2023-03-05T03:31:02;21.80;;;11.18;;
46334;SDS011;32051;48.882;9.210;2023-03-05T03:33:29;19.83;;;11.02;;
46334;SDS011;32051;48.882;9.210;2023-03-05T03:35:55;25.13;;;9.93;;
46334;SDS011;32051;48.882;9.210;2023-03-05T03:38:21;27.63;;;10.18;;
46334;SDS011;32051;48.882;9.210;2023-03-05T03:40:47;28.52;;;10.05;;
46334;SDS011;32051;48.882;9.210;2023-03-05T03:43:13;19.13;;;9.82;;
46334;SDS011;32051;48.882;9.210;2023-03-05T03:45:39;24.42;;;11.50;;
46334;SDS011;32051;48.882;9.210;2023-03-05T03:48:06;23.10;;;10.93;;
46334;SDS011;32051;48.882;9.210;2023-03-05T03:50:32;22.25;;;10.75;;
46334;SDS011;32051;48.882;9.210;2023-03-05T03:52:58;21.90;;;10.43;;
46334;SDS011;32051;48.882;9.210;2023-03-05T03:55:24;22.27;;;9.45;;
46334;SDS011;32051;48.882;9.210;2023-03-05T03:57:50;21.23;;;10.52;;
46334;SDS011;32051;48.882;9.210;2023-03-05T04:00:16;24.48;;;10.55;;
46334;SDS011;32051;48.882;9.210;2023-03-05T04:02:42;19.13;;;9.05;;
46334;SDS011;32051;48.882;9.210;2023-03-05T04:05:08;23.65;;;10.38;;
46334;SDS011;32051;48.882;9.210;2023-03-05T04:07:34;22.38;;;10.60;;
46334;SDS011;32051;48.882;9.210;2023-03-05T04:10:01;20.27;;;10.52;;
46334;SDS011;32051;48.882;9.210;2023-03-05T04:12:27;24.05;;;10.05;;
46334;SDS011;32051;48.882;9.210;2023-03-05T04:14:53;28.92;;;9.98;;
46334;SDS011;32051;48.882;9.210;2023-03-05T04:17:19;19.95;;;9.50;;
46334;SDS011;32051;48.882;9.210;2023-03-05T04:19:45;26.67;;;10.55;;
46334;SDS011;32051;48.882;9.210;2023-03-05T04:22:12;18.13;;;9.02;;
46334;SDS011;32051;48.882;9.210;2023-03-05T04:24:39;20.45;;;10.98;;
46334;SDS011;32051;48.882;9.210;2023-03-05T04:27:05;25.73;;;9.55;;
46334;SDS011;32051;48.882;9.210;2023-03-05T04:29:32;26.80;;;12.55;;
46334;SDS011;32051;48.882;9.210;2023-03-05T04:31:58;29.25;;;9.98;;
46334;SDS011;32051;48.882;9.210;2023-03-05T04:34:24;25.75;;;9.77;;
46334;SDS011;32051;48.882;9.210;2023-03-05T04:36:50;20.65;;;10.35;;
46334;SDS011;32051;48.882;9.210;2023-03-05T04:39:16;19.35;;;9.80;;
46334;SDS011;32051;48.882;9.210;2023-03-05T04:41:45;26.83;;;11.20;;
46334;SDS011;32051;48.882;9.210;2023-03-05T04:44:11;28.42;;;10.20;;
46334;SDS011;32051;48.882;9.210;2023-03-05T04:46:37;18.88;;;9.05;;
46334;SDS011;32051;48.882;9.210;2023-03-05T04:49:03;18.98;;;9.82;;
46334;SDS011;32051;48.882;9.210;2023-03-05T04:51:29;20.02;;;8.80;;
46334;SDS011;32051;48.882;9.210;2023-03-05T04:53:55;33.10;;;11.73;;
46334;SDS011;32051;48.882;9.210;2023-03-05T04:56:21;28.70;;;11.00;;
46334;SDS011;32051;48.882;9.210;2023-03-05T04:58:48;21.83;;;8.93;;
46334;SDS011;32051;48.882;9.210;2023-03-05T05:01:14;24.13;;;10.10;;
46334;SDS011;32051;48.882;9.210;2023-03-05T05:03:40;24.27;;;9.90;;
46334;SDS011;32051;48.882;9.210;2023-03-05T05:06:07;30.63;;;12.10;;
46334;SDS011;32051;48.882;9.210;2023-03-05T05:08:33;20.70;;;9.57;;
46334;SDS011;32051;48.882;9.210;2023-03-05T05:11:00;22.50;;;11.00;;
46334;SDS011;32051;48.882;9.210;2023-03-05T05:13:27;19.27;;;9.70;;
46334;SDS011;32051;48.882;9.210;2023-03-05T05:15:53;25.77;;;11.43;;
46334;SDS011;32051;48.882;9.210;2023-03-05T05:18:20;23.63;;;11.45;;
46334;SDS011;32051;48.882;9.210;2023-03-05T05:20:46;31.02;;;10.55;;
46334;SDS011;32051;48.882;9.210;2023-03-05T05:23:12;25.05;;;9.77;;
46334;SDS011;32051;48.882;9.210;2023-03-05T05:25:39;26.88;;;11.18;;
46334;SDS011;32051;48.882;9.210;2023-03-05T05:28:05;26.48;;;10.35;;
46334;SDS011;32051;48.882;9.210;2023-03-05T05:30:31;24.63;;;10.45;;
46334;SDS011;32051;48.882;9.210;2023-03-05T05:32:57;27.13;;;12.05;;
46334;SDS011;32051;48.882;9.210;2023-03-05T05:35:23;19.98;;;10.05;;
46334;SDS011;32051;48.882;9.210;2023-03-05T05:37:49;24.45;;;10.63;;
46334;SDS011;32051;48.882;9.210;2023-03-05T05:40:15;24.52;;;10.02;;
46334;SDS011;32051;48.882;9.210;2023-03-05T05:42:41;23.92;;;10.13;;
46334;SDS011;32051;48.882;9.210;2023-03-05T05:45:09;20.67;;;10.43;;
46334;SDS011;32051;48.882;9.210;2023-03-05T05:47:35;29.83;;;10.45;;
46334;SDS011;32051;48.882;9.210;2023-03-05T05:50:01;29.05;;;10.25;;
46334;SDS011;32051;48.882;9.210;2023-03-05T05:52:27;19.50;;;9.18;;
46334;SDS011;32051;48.882;9.210;2023-03-05T05:54:53;27.13;;;10.50;;
46334;SDS011;32051;48.882;9.210;2023-03-05T05:57:19;26.15;;;10.20;;
46334;SDS011;32051;48.882;9.210;2023-03-05T05:59:46;29.08;;;10.90;;
46334;SDS011;32051;48.882;9.210;2023-03-05T06:02:12;27.48;;;10.90;;
46334;SDS011;32051;48.882;9.210;2023-03-05T06:04:38;26.35;;;10.45;;
46334;SDS011;32051;48.882;9.210;2023-03-05T06:07:04;25.13;;;10.40;;
46334;SDS011;32051;48.882;9.210;2023-03-05T06:09:30;33.47;;;12.05;;
46334;SDS011;32051;48.882;9.210;2023-03-05T06:11:56;23.42;;;10.43;;
46334;SDS011;32051;48.882;9.210;2023-03-05T06:14:22;23.13;;;10.48;;
46334;SDS011;32051;48.882;9.210;2023-03-05T06:16:48;19.95;;;10.57;;
46334;SDS011;32051;48.882;9.210;2023-03-05T06:19:15;27.45;;;12.02;;
46334;SDS011;32051;48.882;9.210;2023-03-05T06:21:41;26.23;;;10.98;;
46334;SDS011;32051;48.882;9.210;2023-03-05T06:24:07;21.52;;;11.48;;
46334;SDS011;32051;48.882;9.210;2023-03-05T06:26:33;21.80;;;10.75;;
46334;SDS011;32051;48.882;9.210;2023-03-05T06:28:59;23.02;;;9.15;;
46334;SDS011;32051;48.882;9.210;2023-03-05T06:31:26;28.63;;;10.77;;
46334;SDS011;32051;48.882;9.210;2023-03-05T06:33:54;29.35;;;9.57;;
46334;SDS011;32051;48.882;9.210;2023-03-05T06:36:21;19.63;;;9.18;;
46334;SDS011;32051;48.882;9.210;2023-03-05T06:38:48;31.23;;;12.77;;
46334;SDS011;32051;48.882;9.210;2023-03-05T06:41:15;23.38;;;9.88;;
46334;SDS011;32051;48.882;9.210;2023-03-05T06:43:42;26.30;;;11.65;;
46334;SDS011;32051;48.882;9.210;2023-03-05T06:46:10;29.23;;;10.75;;
46334;SDS011;32051;48.882;9.210;2023-03-05T06:48:36;24.30;;;10.57;;
46334;SDS011;32051;48.882;9.210;2023-03-05T06:51:03;33.28;;;10.60;;
46334;SDS011;32051;48.882;9.210;2023-03-05T06:53:29;26.90;;;11.00;;
46334;SDS011;32051;48.882;9.210;2023-03-05T06:55:55;26.60;;;10.68;;
46334;SDS011;32051;48.882;9.210;2023-03-05T06:58:21;23.77;;;10.55;;
46334;SDS011;32051;48.882;9.210;2023-03-05T07:00:48;24.10;;;10.20;;
46334;SDS011;32051;48.882;9.210;2023-03-05T07:03:14;27.60;;;12.55;;
46334;SDS011;32051;48.882;9.210;2023-03-05T07:05:40;28.00;;;12.07;;
46334;SDS011;32051;48.882;9.210;2023-03-05T07:08:07;23.77;;;10.70;;
46334;SDS011;32051;48.882;9.210;2023-03-05T07:10:37;26.48;;;11.27;;
46334;SDS011;32051;48.882;9.210;2023-03-05T07:13:03;29.50;;;10.88;;
46334;SDS011;32051;48.882;9.210;2023-03-05T07:15:29;22.20;;;10.35;;
46334;SDS011;32051;48.882;9.210;2023-03-05T07:17:55;17.30;;;10.32;;
46334;SDS011;32051;48.882;9.210;2023-03-05T07:20:21;24.50;;;11.38;;
46334;SDS011;32051;48.882;9.210;2023-03-05T07:22:47;21.77;;;10.57;;
46334;SDS011;32051;48.882;9.210;2023-03-05T07:25:13;22.90;;;10.82;;
46334;SDS011;32051;48.882;9.210;2023-03-05T07:27:45;29.05;;;13.68;;
46334;SDS011;32051;48.882;9.210;2023-03-05T07:30:11;27.58;;;10.45;;
46334;SDS011;32051;48.882;9.210;2023-03-05T07:32:38;23.38;;;8.95;;
46334;SDS011;32051;48.882;9.210;2023-03-05T07:35:04;25.17;;;9.82;;
46334;SDS011;32051;48.882;9.210;2023-03-05T07:37:30;20.23;;;9.75;;
46334;SDS011;32051;48.882;9.210;2023-03-05T07:39:56;22.73;;;10.80;;
46334;SDS011;32051;48.882;9.210;2023-03-05T07:42:22;23.80;;;8.80;;
46334;SDS011;32051;48.882;9.210;2023-03-05T07:44:55;24.13;;;10.60;;
46334;SDS011;32051;48.882;9.210;2023-03-05T07:47:21;20.63;;;10.32;;
46334;SDS011;32051;48.882;9.210;2023-03-05T07:49:48;19.40;;;10.98;;
46334;SDS011;32051;48.882;9.210;2023-03-05T07:52:14;22.65;;;10.73;;
46334;SDS011;32051;48.882;9.210;2023-03-05T07:54:40;20.40;;;9.90;;
46334;SDS011;32051;48.882;9.210;2023-03-05T07:57:06;22.98;;;10.65;;
46334;SDS011;32051;48.882;9.210;2023-03-05T07:59:33;16.58;;;10.60;;
46334;SDS011;32051;48.882;9.210;2023-03-05T08:01:59;28.25;;;11.68;;
46334;SDS011;32051;48.882;9.210;2023-03-05T08:04:26;22.08;;;10.25;;
46334;SDS011;32051;48.882;9.210;2023-03-05T08:06:53;26.98;;;12.18;;
46334;SDS011;32051;48.882;9.210;2023-03-05T08:09:19;20.60;;;9.98;;
46334;SDS011;32051;48.882;9.210;2023-03-05T08:11:46;25.23;;;11.70;;
46334;SDS011;32051;48.882;9.210;2023-03-05T08:14:12;29.48;;;11.88;;
46334;SDS011;32051;48.882;9.210;2023-03-05T08:16:38;23.73;;;10.02;;
46334;SDS011;32051;48.882;9.210;2023-03-05T08:19:04;28.73;;;11.00;;
46334;SDS011;32051;48.882;9.210;2023-03-05T08:21:31;21.70;;;10.52;;
46334;SDS011;32051;48.882;9.210;2023-03-05T08:23:58;29.58;;;10.27;;
46334;SDS011;32051;48.882;9.210;2023-03-05T08:26:25;25.52;;;11.00;;
46334;SDS011;32051;48.882;9.210;2023-03-05T08:28:52;26.98;;;10.40;;
46334;SDS011;32051;48.882;9.210;2023-03-05T08:31:19;19.33;;;10.07;;
46334;SDS011;32051;48.882;9.210;2023-03-05T08:33:45;25.77;;;10.75;;
46334;SDS011;32051;48.882;9.210;2023-03-05T08:36:12;19.67;;;11.25;;
46334;SDS011;32051;48.882;9.210;2023-03-05T08:38:38;21.33;;;9.90;;
46334;SDS011;32051;48.882;9.210;2023-03-05T08:41:04;30.35;;;12.27;;
46334;SDS011;32051;48.882;9.210;2023-03-05T08:43:31;22.42;;;10.82;;
46334;SDS011;32051;48.882;9.210;2023-03-05T08:45:58;22.58;;;10.73;;
46334;SDS011;32051;48.882;9.210;2023-03-05T08:48:24;21.90;;;10.77;;
46334;SDS011;32051;48.882;9.210;2023-03-05T08:50:50;23.88;;;11.73;;
46334;SDS011;32051;48.882;9.210;2023-03-05T08:53:17;21.45;;;10.38;;
46334;SDS011;32051;48.882;9.210;2023-03-05T08:55:43;23.13;;;11.02;;
46334;SDS011;32051;48.882;9.210;2023-03-05T08:58:09;24.85;;;10.32;;
46334;SDS011;32051;48.882;9.210;2023-03-05T09:00:35;24.20;;;10.93;;
46334;SDS011;32051;48.882;9.210;2023-03-05T09:03:01;22.95;;;11.38;;
46334;SDS011;32051;48.882;9.210;2023-03-05T09:05:27;24.02;;;11.25;;
46334;SDS011;32051;48.882;9.210;2023-03-05T09:07:53;27.77;;;11.80;;
46334;SDS011;32051;48.882;9.210;2023-03-05T09:10:19;30.40;;;11.98;;
46334;SDS011;32051;48.882;9.210;2023-03-05T09:12:45;28.80;;;13.20;;
46334;SDS011;32051;48.882;9.210;2023-03-05T09:15:13;25.70;;;11.63;;
46334;SDS011;32051;48.882;9.210;2023-03-05T09:17:39;22.88;;;10.73;;
46334;SDS011;32051;48.882;9.210;2023-03-05T09:20:06;21.17;;;11.05;;
46334;SDS011;32051;48.882;9.210;2023-03-05T09:22:32;27.48;;;11.55;;
46334;SDS011;32051;48.882;9.210;2023-03-05T09:24:58;34.65;;;13.27;;
46334;SDS011;32051;48.882;9.210;2023-03-05T09:27:24;26.85;;;12.50;;
46334;SDS011;32051;48.882;9.210;2023-03-05T09:29:50;24.02;;;11.20;;
46334;SDS011;32051;48.882;9.210;2023-03-05T09:32:17;21.00;;;10.30;;
46334;SDS011;32051;48.882;9.210;2023-03-05T09:34:43;19.67;;;10.65;;
46334;SDS011;32051;48.882;9.210;2023-03-05T09:37:09;22.73;;;11.68;;
46334;SDS011;32051;48.882;9.210;2023-03-05T09:39:35;24.42;;;11.20;;
46334;SDS011;32051;48.882;9.210;2023-03-05T09:44:40;23.45;;;11.00;;
46334;SDS011;32051;48.882;9.210;2023-03-05T09:47:19;24.38;;;11.82;;
46334;SDS011;32051;48.882;9.210;2023-03-05T09:52:22;20.53;;;10.53;;
46334;SDS011;32051;48.882;9.210;2023-03-05T09:54:52;30.35;;;11.82;;
46334;SDS011;32051;48.882;9.210;2023-03-05T09:57:24;17.83;;;9.75;;
46334;SDS011;32051;48.882;9.210;2023-03-05T09:59:51;24.20;;;10.98;;
46334;SDS011;32051;48.882;9.210;2023-03-05T10:02:25;19.88;;;9.60;;
46334;SDS011;32051;48.882;9.210;2023-03-05T10:07:32;26.25;;;12.25;;
46334;SDS011;32051;48.882;9.210;2023-03-05T10:09:59;27.95;;;11.38;;
46334;SDS011;32051;48.882;9.210;2023-03-05T10:12:42;31.10;;;12.55;;
46334;SDS011;32051;48.882;9.210;2023-03-05T10:15:15;20.13;;;10.60;;
46334;SDS011;32051;48.882;9.210;2023-03-05T10:31:17;24.33;;;11.70;;
46334;SDS011;32051;48.882;9.210;2023-03-05T10:44:32;30.65;;;13.80;;
46334;SDS011;32051;48.882;9.210;2023-03-05T10:47:01;25.55;;;12.75;;
46334;SDS011;32051;48.882;9.210;2023-03-05T10:49:28;24.15;;;12.48;;
46334;SDS011;32051;48.882;9.210;2023-03-05T10:54:27;20.92;;;11.98;;
46334;SDS011;32051;48.882;9.210;2023-03-05T10:59:40;24.38;;;11.98;;
46334;SDS011;32051;48.882;9.210;2023-03-05T11:02:08;29.92;;;14.02;;
46334;SDS011;32051;48.882;9.210;2023-03-05T11:04:36;34.15;;;12.52;;
46334;SDS011;32051;48.882;9.210;2023-03-05T11:09:41;29.02;;;12.98;;
46334;SDS011;32051;48.882;9.210;2023-03-05T11:12:12;26.33;;;12.65;;
46334;SDS011;32051;48.882;9.210;2023-03-05T11:15:22;29.55;;;13.32;;
46334;SDS011;32051;48.882;9.210;2023-03-05T11:17:44;27.80;;;14.13;;
46334;SDS011;32051;48.882;9.210;2023-03-05T11:25:30;21.52;;;12.27;;
46334;SDS011;32051;48.882;9.210;2023-03-05T11:27:57;27.35;;;12.07;;
46334;SDS011;32051;48.882;9.210;2023-03-05T11:30:25;29.73;;;12.93;;
46334;SDS011;32051;48.882;9.210;2023-03-05T11:35:37;22.70;;;12.13;;
46334;SDS011;32051;48.882;9.210;2023-03-05T11:38:05;26.00;;;12.05;;
46334;SDS011;32051;48.882;9.210;2023-03-05T11:40:32;24.02;;;11.48;;
46334;SDS011;32051;48.882;9.210;2023-03-05T11:43:02;17.10;;;10.32;;
46334;SDS011;32051;48.882;9.210;2023-03-05T11:45:29;20.23;;;10.93;;
46334;SDS011;32051;48.882;9.210;2023-03-05T11:48:07;25.13;;;11.55;;
46334;SDS011;32051;48.882;9.210;2023-03-05T11:50:34;21.42;;;11.90;;
46334;SDS011;32051;48.882;9.210;2023-03-05T11:53:04;20.80;;;10.27;;
46334;SDS011;32051;48.882;9.210;2023-03-05T11:55:46;22.00;;;10.52;;
46334;SDS011;32051;48.882;9.210;2023-03-05T11:58:21;23.50;;;10.85;;
46334;SDS011;32051;48.882;9.210;2023-03-05T12:00:49;22.83;;;12.13;;
46334;SDS011;32051;48.882;9.210;2023-03-05T12:03:16;25.65;;;12.18;;
46334;SDS011;32051;48.882;9.210;2023-03-05T12:05:45;41.00;;;11.85;;
46334;SDS011;32051;48.882;9.210;2023-03-05T12:08:14;19.10;;;11.05;;
46334;SDS011;32051;48.882;9.210;2023-03-05T12:10:47;19.27;;;9.93;;
46334;SDS011;32051;48.882;9.210;2023-03-05T12:24:01;17.50;;;10.70;;
46334;SDS011;32051;48.882;9.210;2023-03-05T12:26:54;25.33;;;11.73;;
46334;SDS011;32051;48.882;9.210;2023-03-05T12:29:28;22.40;;;10.20;;
46334;SDS011;32051;48.882;9.210;2023-03-05T12:31:57;15.90;;;10.75;;
46334;SDS011;32051;48.882;9.210;2023-03-05T12:39:59;26.52;;;10.98;;
46334;SDS011;32051;48.882;9.210;2023-03-05T12:47:36;17.55;;;10.43;;
46334;SDS011;32051;48.882;9.210;2023-03-05T12:58:02;17.38;;;9.23;;
46334;SDS011;32051;48.882;9.210;2023-03-05T13:03:33;24.75;;;9.85;;
46334;SDS011;32051;48.882;9.210;2023-03-05T13:11:40;15.05;;;9.77;;
46334;SDS011;32051;48.882;9.210;2023-03-05T13:14:25;16.42;;;10.05;;
46334;SDS011;32051;48.882;9.210;2023-03-05T13:17:34;20.27;;;9.87;;
46334;SDS011;32051;48.882;9.210;2023-03-05T13:20:26;19.88;;;10.52;;
46334;SDS011;32051;48.882;9.210;2023-03-05T13:23:17;20.70;;;10.30;;
46334;SDS011;32051;48.882;9.210;2023-03-05T13:28:24;14.50;;;8.27;;
46334;SDS011;32051;48.882;9.210;2023-03-05T13:30:57;19.38;;;9.40;;
46334;SDS011;32051;48.882;9.210;2023-03-05T13:33:31;18.33;;;9.70;;
46334;SDS011;32051;48.882;9.210;2023-03-05T13:35:59;15.18;;;8.82;;
46334;SDS011;32051;48.882;9.210;2023-03-05T13:38:33;17.38;;;9.65;;
46334;SDS011;32051;48.882;9.210;2023-03-05T13:43:31;14.02;;;9.52;;
46334;SDS011;32051;48.882;9.210;2023-03-05T13:45:57;12.57;;;8.93;;
46334;SDS011;32051;48.882;9.210;2023-03-05T13:48:24;16.02;;;8.80;;
46334;SDS011;32051;48.882;9.210;2023-03-05T13:50:57;14.82;;;8.32;;
46334;SDS011;32051;48.882;9.210;2023-03-05T13:53:24;17.00;;;9.43;;
46334;SDS011;32051;48.882;9.210;2023-03-05T13:55:55;13.98;;;8.77;;
46334;SDS011;32051;48.882;9.210;2023-03-05T14:01:21;11.32;;;8.63;;
46334;SDS011;32051;48.882;9.210;2023-03-05T14:03:52;21.27;;;8.93;;
46334;SDS011;32051;48.882;9.210;2023-03-05T14:06:24;16.17;;;8.93;;
46334;SDS011;32051;48.882;9.210;2023-03-05T14:09:26;16.00;;;9.23;;
46334;SDS011;32051;48.882;9.210;2023-03-05T14:11:59;17.15;;;9.93;;
46334;SDS011;32051;48.882;9.210;2023-03-05T14:14:26;15.88;;;8.90;;
46334;SDS011;32051;48.882;9.210;2023-03-05T14:16:53;12.23;;;8.98;;
46334;SDS011;32051;48.882;9.210;2023-03-05T14:19:37;18.25;;;8.77;;
46334;SDS011;32051;48.882;9.210;2023-03-05T14:22:04;18.55;;;9.65;;
46334;SDS011;32051;48.882;9.210;2023-03-05T14:24:31;21.52;;;9.75;;
46334;SDS011;32051;48.882;9.210;2023-03-05T14:26:59;24.50;;;9.20;;
46334;SDS011;32051;48.882;9.210;2023-03-05T14:29:27;19.23;;;9.25;;
46334;SDS011;32051;48.882;9.210;2023-03-05T14:34:24;14.38;;;8.77;;
46334;SDS011;32051;48.882;9.210;2023-03-05T14:36:51;20.15;;;10.13;;
46334;SDS011;32051;48.882;9.210;2023-03-05T14:39:25;12.68;;;9.45;;
46334;SDS011;32051;48.882;9.210;2023-03-05T14:41:51;16.55;;;9.60;;
46334;SDS011;32051;48.882;9.210;2023-03-05T14:44:17;12.85;;;8.93;;
46334;SDS011;32051;48.882;9.210;2023-03-05T14:46:47;18.42;;;8.15;;
46334;SDS011;32051;48.882;9.210;2023-03-05T14:49:14;15.32;;;9.00;;
46334;SDS011;32051;48.882;9.210;2023-03-05T14:51:41;14.60;;;9.60;;
46334;SDS011;32051;48.882;9.210;2023-03-05T14:54:20;17.98;;;9.15;;
46334;SDS011;32051;48.882;9.210;2023-03-05T14:56:47;17.00;;;8.30;;
46334;SDS011;32051;48.882;9.210;2023-03-05T14:59:15;10.77;;;8.52;;
46334;SDS011;32051;48.882;9.210;2023-03-05T15:01:42;15.18;;;8.60;;
46334;SDS011;32051;48.882;9.210;2023-03-05T15:04:08;16.30;;;8.00;;
46334;SDS011;32051;48.882;9.210;2023-03-05T15:06:34;16.75;;;9.43;;
46334;SDS011;32051;48.882;9.210;2023-03-05T15:09:03;20.25;;;10.00;;
46334;SDS011;32051;48.882;9.210;2023-03-05T15:11:30;16.60;;;8.80;;
46334;SDS011;32051;48.882;9.210;2023-03-05T15:13:58;13.10;;;7.93;;
46334;SDS011;32051;48.882;9.210;2023-03-05T15:16:27;15.82;;;9.40;;
46334;SDS011;32051;48.882;9.210;2023-03-05T15:18:55;16.13;;;9.02;;
46334;SDS011;32051;48.882;9.210;2023-03-05T15:21:22;15.45;;;9.60;;
46334;SDS011;32051;48.882;9.210;2023-03-05T15:23:49;16.50;;;8.93;;
46334;SDS011;32051;48.882;9.210;2023-03-05T15:26:18;17.48;;;9.25;;
46334;SDS011;32051;48.882;9.210;2023-03-05T15:28:47;13.65;;;9.32;;
46334;SDS011;32051;48.882;9.210;2023-03-05T15:31:15;20.20;;;9.98;;
46334;SDS011;32051;48.882;9.210;2023-03-05T15:33:44;16.50;;;8.18;;
46334;SDS011;32051;48.882;9.210;2023-03-05T15:36:13;13.48;;;8.45;;
46334;SDS011;32051;48.882;9.210;2023-03-05T15:38:42;13.93;;;8.05;;
46334;SDS011;32051;48.882;9.210;2023-03-05T15:41:12;13.57;;;8.23;;
46334;SDS011;32051;48.882;9.210;2023-03-05T15:43:41;16.10;;;9.07;;
46334;SDS011;32051;48.882;9.210;2023-03-05T15:46:09;11.38;;;8.52;;
46334;SDS011;32051;48.882;9.210;2023-03-05T15:48:38;12.45;;;7.75;;
46334;SDS011;32051;48.882;9.210;2023-03-05T15:51:14;14.00;;;9.02;;
46334;SDS011;32051;48.882;9.210;2023-03-05T15:53:44;12.15;;;8.10;;
46334;SDS011;32051;48.882;9.210;2023-03-05T15:56:13;19.67;;;9.25;;
46334;SDS011;32051;48.882;9.210;2023-03-05T15:58:40;17.33;;;8.25;;
46334;SDS011;32051;48.882;9.210;2023-03-05T16:01:07;24.02;;;8.95;;
46334;SDS011;32051;48.882;9.210;2023-03-05T16:03:33;16.23;;;8.98;;
46334;SDS011;32051;48.882;9.210;2023-03-05T16:05:59;12.70;;;8.13;;